Aeroporto :
LOGIN :

Iscrizione | Disclaimer

   EN    FR    IT 

 










Sommario :    VFR   VFR Marginale   IFR   IFR Intensivo   IFR Molto Intensivo
Visibilità : 
Base nubi : 
>= 8 km
>= 3000ft
5 / 8 km
1000 / 3000 ft
1500m / 5 km
500 / 1000 ft
800 / 1500m
200 / 500 ft
< 800m
< 200 ft
Simboli :   Temporali  Nebbia  Neve Forte  Precipitazioni Forti  Vento > 20 kt
SIGMETs :   Varie  Temporali  Ghiacco  Turbolenza  Onda orograficha  Ceneri Vulcaniche






- Altitudine del aeroporto : 1299 ft


EDTY - Adolf Würth

ULTIMO METAR :
  • 151120Z 05004KT 010V110 9999 FEW029 25/17 Q1016

METARs OBSOLETI :
  • 151050Z VRB03KT CAVOK 25/18 Q1016
  • 151020Z VRB02KT CAVOK 24/19 Q1016
  • 150950Z 34004KT 300V010 9999 FEW017 23/18 Q1016
  • 150920Z 29003KT 240V350 9999 FEW013 22/18 Q1016
  • 150850Z 29003KT 190V340 9999 SCT012 22/18 Q1016

TAF TAF EDTY
Valido dal 15 a 12 ore il 15 a 21 ore UTC


151100Z 1512/1521 35004KT 9999 SCT035



MetMap, La meteo Aeronautica in un colpo d'occhio ! - Copyright ORBIFLY Dicembre 2007 - Disclaimer

ORBIFLY MET'MAP TEAM :

Programmazione e sviluppo : Alexandra Zaïnal
Concezione : Baudouin d'Aumeries
Aiuto per la programmazione : Marc-Olivier Méhu
Supporto tecnico e logistico : Manuel Goepfert
Aiuto per la traduzione : Arnaldo La Scala

Contatto : metmap@orbifly.com




FONTI E CREDITI :

   NOAA